Time,TemperatureF,DewpointF,PressureIn,WindDirection,WindDirectionDegrees,WindSpeedMPH,WindSpeedGustMPH,Humidity,HourlyPrecipIn,Conditions,Clouds,dailyrainin,SoftwareType,DateUTC
2013-02-08 00:21:00,56.0,49.0,30.00,South,190,2.0,-999.0,76,0.00,,,-99.99,,2013-02-08 08:21:00,
2013-02-08 00:32:00,56.0,49.0,30.00,South,190,2.0,-999.0,76,0.00,,,-99.99,,2013-02-08 08:32:00,
2013-02-08 00:41:00,56.0,49.0,30.00,South,190,2.0,-999.0,76,0.00,,,-99.99,,2013-02-08 08:41:00,
2013-02-08 01:21:00,55.0,51.0,30.00,NNE,20,2.0,-999.0,85,0.00,,,-99.99,,2013-02-08 09:21:00,
2013-02-08 01:31:00,55.0,51.0,30.00,NNE,20,2.0,-999.0,85,0.00,,,-99.99,,2013-02-08 09:31:00,
2013-02-08 01:42:00,55.0,51.0,30.00,NNE,20,2.0,-999.0,85,0.00,,,-99.99,,2013-02-08 09:42:00,
2013-02-08 02:22:00,54.0,49.0,30.00,ENE,60,9.0,-999.0,83,0.02,,,-99.99,,2013-02-08 10:22:00,
2013-02-08 02:31:00,54.0,49.0,30.00,ENE,60,9.0,-999.0,83,0.02,,,-99.99,,2013-02-08 10:31:00,
2013-02-08 02:41:00,54.0,49.0,30.00,ENE,60,9.0,-999.0,83,0.02,,,-99.99,,2013-02-08 10:41:00,
2013-02-08 03:21:00,53.0,44.0,29.98,NW,310,3.0,-999.0,72,0.00,,,-99.99,,2013-02-08 11:21:00,
2013-02-08 03:32:00,53.0,44.0,29.98,NW,310,3.0,-999.0,72,0.00,,,-99.99,,2013-02-08 11:32:00,
2013-02-08 03:41:00,53.0,44.0,29.98,NW,310,3.0,-999.0,72,0.00,,,-99.99,,2013-02-08 11:41:00,
2013-02-08 05:21:00,53.0,44.0,29.97,North,0,0.0,-999.0,71,0.00,,,-99.99,,2013-02-08 13:21:00,
2013-02-08 05:32:00,53.0,44.0,29.97,North,0,0.0,-999.0,71,0.00,,,-99.99,,2013-02-08 13:32:00,
2013-02-08 05:42:00,53.0,44.0,29.97,North,0,0.0,-999.0,71,0.00,,,-99.99,,2013-02-08 13:42:00,
2013-02-08 06:21:00,53.0,44.0,29.99,North,0,0.0,-999.0,71,0.00,,,-99.99,,2013-02-08 14:21:00,
2013-02-08 06:32:00,53.0,44.0,29.99,North,0,0.0,-999.0,71,0.00,,,-99.99,,2013-02-08 14:32:00,
2013-02-08 06:42:00,53.0,44.0,29.99,North,0,0.0,-999.0,71,0.00,,,-99.99,,2013-02-08 14:42:00,
2013-02-08 07:21:00,53.0,44.0,29.99,North,0,0.0,-999.0,72,0.01,,,-99.99,,2013-02-08 15:21:00,
2013-02-08 07:32:00,53.0,44.0,29.99,North,0,0.0,-999.0,72,0.01,,,-99.99,,2013-02-08 15:32:00,
2013-02-08 07:42:00,53.0,44.0,29.99,North,0,0.0,-999.0,72,0.01,,,-99.99,,2013-02-08 15:42:00,
2013-02-08 08:21:00,52.0,47.0,30.00,NW,320,3.0,-999.0,82,0.01,,,-99.99,,2013-02-08 16:21:00,
2013-02-08 08:32:00,52.0,47.0,30.00,NW,320,3.0,-999.0,82,0.01,,,-99.99,,2013-02-08 16:32:00,
2013-02-08 08:42:00,52.0,47.0,30.00,NW,320,3.0,-999.0,82,0.01,,,-99.99,,2013-02-08 16:42:00,
2013-02-08 09:22:00,52.0,46.0,30.00,ENE,70,1.0,-999.0,80,0.01,,,-99.99,,2013-02-08 17:22:00,
2013-02-08 09:32:00,52.0,46.0,30.00,ENE,70,1.0,-999.0,80,0.01,,,-99.99,,2013-02-08 17:32:00,
2013-02-08 09:42:00,52.0,46.0,30.00,ENE,70,1.0,-999.0,80,0.01,,,-99.99,,2013-02-08 17:42:00,
2013-02-08 10:24:00,49.0,44.0,30.01,SSW,200,1.0,-999.0,84,0.01,,,-99.99,,2013-02-08 18:24:00,
2013-02-08 10:34:00,49.0,44.0,30.01,SSW,200,1.0,-999.0,84,0.01,,,-99.99,,2013-02-08 18:34:00,
2013-02-08 10:43:00,49.0,44.0,30.01,SSW,200,1.0,-999.0,84,0.01,,,-99.99,,2013-02-08 18:43:00,
2013-02-08 11:22:00,55.0,49.0,29.99,SW,220,15.0,-999.0,79,0.01,,,-99.99,,2013-02-08 19:22:00,
2013-02-08 11:32:00,55.0,49.0,29.99,SW,220,15.0,-999.0,79,0.01,,,-99.99,,2013-02-08 19:32:00,
2013-02-08 11:42:00,55.0,49.0,29.99,SW,220,15.0,-999.0,79,0.01,,,-99.99,,2013-02-08 19:42:00,
2013-02-08 12:21:00,51.0,47.0,29.97,NNW,340,2.0,-999.0,86,0.01,,,-99.99,,2013-02-08 20:21:00,
2013-02-08 12:31:00,51.0,47.0,29.97,NNW,340,2.0,-999.0,86,0.01,,,-99.99,,2013-02-08 20:31:00,
2013-02-08 12:41:00,51.0,47.0,29.97,NNW,340,2.0,-999.0,86,0.01,,,-99.99,,2013-02-08 20:41:00,
2013-02-08 13:21:00,55.0,49.0,29.94,SSW,200,5.0,-999.0,79,0.01,,,-99.99,,2013-02-08 21:21:00,
2013-02-08 13:32:00,55.0,49.0,29.94,SSW,200,5.0,-999.0,79,0.01,,,-99.99,,2013-02-08 21:32:00,
2013-02-08 13:42:00,55.0,49.0,29.94,SSW,200,5.0,-999.0,79,0.01,,,-99.99,,2013-02-08 21:42:00,
2013-02-08 14:21:00,51.0,46.0,29.92,North,0,0.0,-999.0,84,0.01,,,-99.99,,2013-02-08 22:21:00,
2013-02-08 14:32:00,51.0,46.0,29.92,North,0,0.0,-999.0,84,0.01,,,-99.99,,2013-02-08 22:32:00,
2013-02-08 14:42:00,51.0,46.0,29.92,North,0,0.0,-999.0,84,0.01,,,-99.99,,2013-02-08 22:42:00,
2013-02-08 15:21:00,54.0,45.0,29.91,NNW,330,9.0,-999.0,72,0.03,,,-99.99,,2013-02-08 23:21:00,
2013-02-08 15:31:00,54.0,45.0,29.91,NNW,330,9.0,-999.0,72,0.03,,,-99.99,,2013-02-08 23:31:00,
2013-02-08 15:41:00,54.0,45.0,29.91,NNW,330,9.0,-999.0,72,0.03,,,-99.99,,2013-02-08 23:41:00,
2013-02-08 16:21:00,52.0,44.0,29.91,NNE,30,6.0,-999.0,75,0.02,,,-99.99,,2013-02-09 00:21:00,
2013-02-08 16:32:00,52.0,44.0,29.91,NNE,30,6.0,-999.0,75,0.02,,,-99.99,,2013-02-09 00:32:00,
2013-02-08 16:42:00,52.0,44.0,29.91,NNE,30,6.0,-999.0,75,0.02,,,-99.99,,2013-02-09 00:42:00,
2013-02-08 17:21:00,52.0,43.0,29.90,NNE,20,2.0,-999.0,72,0.02,,,-99.99,,2013-02-09 01:21:00,
2013-02-08 17:31:00,52.0,43.0,29.90,NNE,20,2.0,-999.0,72,0.02,,,-99.99,,2013-02-09 01:31:00,
2013-02-08 17:41:00,52.0,43.0,29.90,NNE,20,2.0,-999.0,72,0.02,,,-99.99,,2013-02-09 01:41:00,
2013-02-08 18:21:00,51.0,43.0,29.89,NNE,30,4.0,-999.0,74,0.01,,,-99.99,,2013-02-09 02:21:00,
2013-02-08 18:32:00,51.0,43.0,29.89,NNE,30,4.0,-999.0,74,0.01,,,-99.99,,2013-02-09 02:32:00,
2013-02-08 18:41:00,51.0,43.0,29.89,NNE,30,4.0,-999.0,74,0.01,,,-99.99,,2013-02-09 02:41:00,
2013-02-08 19:21:00,51.0,43.0,29.89,SSE,160,1.0,-999.0,74,0.01,,,-99.99,,2013-02-09 03:21:00,
2013-02-08 19:32:00,51.0,43.0,29.89,SSE,160,1.0,-999.0,74,0.01,,,-99.99,,2013-02-09 03:32:00,
2013-02-08 19:41:00,51.0,43.0,29.89,SSE,160,1.0,-999.0,74,0.01,,,-99.99,,2013-02-09 03:41:00,
2013-02-08 20:23:00,49.0,43.0,29.91,North,360,5.0,-999.0,80,0.00,,,-99.99,,2013-02-09 04:23:00,
2013-02-08 20:32:00,49.0,43.0,29.91,North,360,5.0,-999.0,80,0.00,,,-99.99,,2013-02-09 04:32:00,
2013-02-08 20:42:00,49.0,43.0,29.91,North,360,5.0,-999.0,80,0.00,,,-99.99,,2013-02-09 04:42:00,
2013-02-08 21:22:00,47.0,43.0,29.91,North,360,2.0,-999.0,87,0.01,,,-99.99,,2013-02-09 05:22:00,
2013-02-08 21:31:00,47.0,43.0,29.91,North,360,2.0,-999.0,87,0.01,,,-99.99,,2013-02-09 05:31:00,
2013-02-08 21:41:00,47.0,43.0,29.91,North,360,2.0,-999.0,87,0.01,,,-99.99,,2013-02-09 05:41:00,
2013-02-08 22:21:00,47.0,44.0,29.90,North,10,5.0,-999.0,89,0.01,,,-99.99,,2013-02-09 06:21:00,
2013-02-08 22:31:00,47.0,44.0,29.90,North,10,5.0,-999.0,89,0.01,,,-99.99,,2013-02-09 06:31:00,
2013-02-08 22:41:00,47.0,44.0,29.90,North,10,5.0,-999.0,89,0.01,,,-99.99,,2013-02-09 06:41:00,
2013-02-08 23:21:00,46.0,42.0,29.91,North,10,6.0,-999.0,87,0.00,,,-99.99,,2013-02-09 07:21:00,
2013-02-08 23:31:00,46.0,42.0,29.91,North,10,6.0,-999.0,87,0.00,,,-99.99,,2013-02-09 07:31:00,
2013-02-08 23:42:00,46.0,42.0,29.91,North,10,6.0,-999.0,87,0.00,,,-99.99,,2013-02-09 07:42:00,